createdAt,value
2023-04-08T00:00:52.904Z,22.33
2023-04-08T00:05:54.293Z,22.27
2023-04-08T00:10:55.945Z,22.21
2023-04-08T00:15:57.782Z,22.28
2023-04-08T00:20:59.258Z,22.34
2023-04-08T00:26:00.696Z,22.36
2023-04-08T00:31:02.182Z,22.38
2023-04-08T00:36:03.700Z,22.27
2023-04-08T00:41:05.267Z,22.27
2023-04-08T00:46:06.710Z,22.32
2023-04-08T00:51:08.167Z,22.37
2023-04-08T00:56:09.536Z,22.31
2023-04-08T01:01:14.676Z,22.22
2023-04-08T01:06:22.657Z,22.25
2023-04-08T01:11:24.045Z,22.31
2023-04-08T01:16:25.562Z,22.35
2023-04-08T01:21:27.067Z,22.32
2023-04-08T01:26:28.467Z,22.25
2023-04-08T01:31:30.559Z,22.24
2023-04-08T01:36:32.590Z,22.29
2023-04-08T01:41:34.370Z,22.35
2023-04-08T01:46:35.837Z,22.35
2023-04-08T01:51:38.755Z,22.31
2023-04-08T01:56:41.859Z,22.27
2023-04-08T02:01:44.096Z,22.26
2023-04-08T02:06:45.538Z,22.34
2023-04-08T02:11:46.911Z,22.35
2023-04-08T02:16:56.317Z,22.31
2023-04-08T02:22:00.427Z,22.27
2023-04-08T02:27:02.186Z,22.27
2023-04-08T02:32:04.181Z,22.33
2023-04-08T02:37:05.613Z,22.33
2023-04-08T02:42:07.096Z,22.30
2023-04-08T02:47:08.470Z,22.26
2023-04-08T02:52:09.883Z,22.26
2023-04-08T02:57:11.274Z,22.32
2023-04-08T03:02:12.726Z,22.37
2023-04-08T03:07:14.371Z,22.32
2023-04-08T03:12:15.883Z,22.26
2023-04-08T03:17:17.286Z,22.26
2023-04-08T03:22:19.070Z,22.33
2023-04-08T03:27:20.620Z,22.41
2023-04-08T03:32:22.019Z,22.33
2023-04-08T03:37:23.444Z,22.28
2023-04-08T03:42:24.852Z,22.27
2023-04-08T03:47:27.133Z,22.33
2023-04-08T03:52:28.591Z,22.36
2023-04-08T03:57:30.254Z,22.31
2023-04-08T04:02:31.838Z,22.32
2023-04-08T04:07:33.367Z,22.27
2023-04-08T04:12:34.744Z,22.29
2023-04-08T04:17:36.191Z,22.40
2023-04-08T04:22:37.610Z,22.38
2023-04-08T04:27:39.014Z,22.34
2023-04-08T04:32:40.411Z,22.28
2023-04-08T04:37:41.917Z,22.28
2023-04-08T04:42:43.320Z,22.35
2023-04-08T04:47:44.738Z,22.39
2023-04-08T04:52:46.399Z,22.35
2023-04-08T04:57:50.885Z,22.28
2023-04-08T05:02:52.421Z,22.31
2023-04-08T05:07:54.000Z,22.33
2023-04-08T05:12:55.405Z,22.36
2023-04-08T05:17:56.809Z,22.33
2023-04-08T05:22:58.198Z,22.26
2023-04-08T05:27:59.597Z,22.29
2023-04-08T05:33:01.136Z,22.32
2023-04-08T05:38:02.584Z,22.36
2023-04-08T05:43:04.040Z,22.35
2023-04-08T05:48:05.474Z,22.31
2023-04-08T05:53:06.922Z,22.28
2023-04-08T05:58:08.438Z,22.30
2023-04-08T06:03:10.107Z,22.38
2023-04-08T06:08:11.659Z,22.39
2023-04-08T06:13:13.030Z,22.33
2023-04-08T06:18:16.181Z,22.31
2023-04-08T06:23:17.561Z,22.30
2023-04-08T06:28:18.950Z,22.36
2023-04-08T06:33:20.315Z,22.38
2023-04-08T06:38:21.712Z,22.34
2023-04-08T06:43:23.111Z,22.30
2023-04-08T06:48:28.600Z,22.30
2023-04-08T06:53:31.112Z,22.36
2023-04-08T06:58:32.513Z,22.40
2023-04-08T07:03:33.946Z,22.42
2023-04-08T07:08:36.304Z,22.30
2023-04-08T07:13:37.796Z,22.28
2023-04-08T07:18:41.267Z,22.34
2023-04-08T07:23:42.674Z,22.42
2023-04-08T07:28:44.071Z,22.44
2023-04-08T07:33:45.776Z,22.38
2023-04-08T07:38:47.314Z,22.33
2023-04-08T07:43:48.823Z,22.34
2023-04-08T07:48:50.805Z,22.37
2023-04-08T07:53:52.460Z,22.41
2023-04-08T07:58:54.413Z,22.41
2023-04-08T08:03:56.087Z,22.38
2023-04-08T08:08:57.860Z,22.32
2023-04-08T08:13:59.254Z,22.32
2023-04-08T08:19:01.115Z,22.38
2023-04-08T08:24:02.498Z,22.43
2023-04-08T08:29:04.214Z,22.39
2023-04-08T08:34:05.776Z,22.29
2023-04-08T08:39:07.146Z,22.32
2023-04-08T08:44:08.792Z,22.34
2023-04-08T08:49:10.689Z,22.39
2023-04-08T08:54:12.736Z,22.37
2023-04-08T08:59:14.133Z,22.34
2023-04-08T09:04:18.320Z,22.30
2023-04-08T09:09:20.111Z,22.36
2023-04-08T09:14:22.257Z,22.42
2023-04-08T09:19:23.664Z,22.43
2023-04-08T09:24:30.169Z,22.37
2023-04-08T09:29:34.317Z,22.30
2023-04-08T09:34:37.454Z,22.34
2023-04-08T09:39:38.866Z,22.39
2023-04-08T09:44:40.378Z,22.44
2023-04-08T09:49:46.187Z,22.43
2023-04-08T09:55:00.540Z,22.32
2023-04-08T10:00:08.496Z,22.28
2023-04-08T10:05:10.814Z,22.36
2023-04-08T10:10:12.388Z,22.41
2023-04-08T10:15:30.432Z,22.41
2023-04-08T10:20:34.886Z,22.41
2023-04-08T10:25:42.973Z,22.36
2023-04-08T10:30:44.746Z,22.31
2023-04-08T10:35:53.244Z,22.40
2023-04-08T10:40:54.840Z,22.42
2023-04-08T10:45:56.250Z,22.44
2023-04-08T10:51:00.583Z,22.38
2023-04-08T10:56:06.195Z,22.29
2023-04-08T11:01:08.206Z,22.33
2023-04-08T11:06:09.678Z,22.38
2023-04-08T11:11:11.719Z,22.41
2023-04-08T11:16:18.262Z,22.40
2023-04-08T11:21:22.061Z,22.32
2023-04-08T11:26:23.478Z,22.26
2023-04-08T11:31:25.194Z,22.31
2023-04-08T11:36:28.982Z,22.39
2023-04-08T11:41:37.908Z,22.45
2023-04-08T11:46:40.830Z,22.45
2023-04-08T11:51:56.201Z,22.35
2023-04-08T11:56:58.285Z,22.30
2023-04-08T12:01:59.772Z,22.34
2023-04-08T12:07:01.191Z,22.40
2023-04-08T12:12:03.250Z,22.40
2023-04-08T12:17:04.631Z,22.41
2023-04-08T12:22:06.001Z,22.35
2023-04-08T12:27:07.434Z,22.35
2023-04-08T12:32:08.843Z,22.35
2023-04-08T12:37:10.503Z,22.41
2023-04-08T12:42:11.882Z,22.42
2023-04-08T12:47:13.386Z,22.41
2023-04-08T12:52:14.891Z,22.35
2023-04-08T12:57:16.400Z,22.36
2023-04-08T13:02:17.807Z,22.40
2023-04-08T13:07:19.401Z,22.44
2023-04-08T13:12:21.357Z,22.43
2023-04-08T13:17:22.871Z,22.39
2023-04-08T13:22:24.319Z,22.35
2023-04-08T13:27:25.707Z,22.37
2023-04-08T13:32:27.143Z,22.41
2023-04-08T13:37:29.175Z,22.44
2023-04-08T13:42:33.348Z,22.42
2023-04-08T13:47:37.221Z,22.39
2023-04-08T13:52:39.242Z,22.35
2023-04-08T13:57:40.658Z,22.35
2023-04-08T14:02:42.150Z,22.41
2023-04-08T14:07:43.571Z,22.40
2023-04-08T14:12:46.455Z,22.38
2023-04-08T14:17:48.345Z,22.29
2023-04-08T14:22:50.614Z,22.30
2023-04-08T14:27:58.519Z,22.38
2023-04-08T14:33:01.076Z,22.38
2023-04-08T14:38:02.515Z,22.39
2023-04-08T14:43:03.923Z,22.35
2023-04-08T14:48:05.568Z,22.27
2023-04-08T14:53:06.979Z,22.31
2023-04-08T14:58:08.391Z,22.38
2023-04-08T15:03:11.155Z,22.41
2023-04-08T15:08:13.381Z,22.39
2023-04-08T15:13:14.748Z,22.35
2023-04-08T15:18:16.115Z,22.30
2023-04-08T15:23:17.567Z,22.32
2023-04-08T15:28:18.974Z,22.36
2023-04-08T15:33:20.980Z,22.41
2023-04-08T15:38:22.357Z,22.34
2023-04-08T15:43:23.771Z,22.27
2023-04-08T15:48:25.144Z,22.26
2023-04-08T15:53:26.523Z,22.34
2023-04-08T15:58:27.937Z,22.35
2023-04-08T16:03:29.434Z,22.34
2023-04-08T16:08:32.217Z,22.23
2023-04-08T16:13:34.104Z,22.22
2023-04-08T16:18:35.522Z,22.23
2023-04-08T16:23:37.983Z,22.30
2023-04-08T16:28:39.859Z,22.32
2023-04-08T16:33:41.626Z,22.31
2023-04-08T16:38:43.032Z,22.28
2023-04-08T16:43:44.459Z,22.25
2023-04-08T16:48:46.319Z,22.27
2023-04-08T16:53:47.690Z,22.33
2023-04-08T16:58:49.122Z,22.31
2023-04-08T17:03:52.207Z,22.27
2023-04-08T17:08:53.843Z,22.19
2023-04-08T17:13:55.228Z,22.24
2023-04-08T17:18:56.612Z,22.32
2023-04-08T17:23:58.006Z,22.33
2023-04-08T17:28:59.384Z,22.31
2023-04-08T17:34:00.800Z,22.25
2023-04-08T17:39:02.201Z,22.22
2023-04-08T17:44:04.655Z,22.29
2023-04-08T17:49:06.092Z,22.34
2023-04-08T17:54:07.483Z,22.33
2023-04-08T17:59:08.898Z,22.30
2023-04-08T18:04:12.160Z,22.18
2023-04-08T18:09:13.686Z,22.26
2023-04-08T18:14:15.143Z,22.30
2023-04-08T18:19:16.552Z,22.32
2023-04-08T18:24:18.955Z,22.32
2023-04-08T18:29:20.347Z,22.30
2023-04-08T18:34:23.109Z,22.25
2023-04-08T18:39:24.494Z,22.31
2023-04-08T18:44:25.938Z,22.34
2023-04-08T18:49:30.172Z,22.32
2023-04-08T18:54:32.423Z,22.33
2023-04-08T18:59:33.851Z,22.27
2023-04-08T19:04:35.235Z,22.27
2023-04-08T19:09:36.628Z,22.33
2023-04-08T19:14:38.110Z,22.34
2023-04-08T19:19:39.503Z,22.29
2023-04-08T19:24:40.896Z,22.22
2023-04-08T19:29:42.312Z,22.24
2023-04-08T19:34:43.698Z,22.29
2023-04-08T19:39:45.369Z,22.33
2023-04-08T19:44:49.509Z,22.30
2023-04-08T19:49:50.936Z,22.22
2023-04-08T19:54:52.957Z,22.23
2023-04-08T19:59:54.473Z,22.26
2023-04-08T20:04:57.167Z,22.29
2023-04-08T20:09:58.656Z,22.31
2023-04-08T20:15:01.036Z,22.28
2023-04-08T20:20:03.034Z,22.20
2023-04-08T20:25:05.417Z,22.25
2023-04-08T20:30:07.498Z,22.32
2023-04-08T20:35:08.950Z,22.34
2023-04-08T20:40:10.510Z,22.31
2023-04-08T20:45:11.904Z,22.24
2023-04-08T20:50:13.403Z,22.27
2023-04-08T20:55:14.781Z,22.30
2023-04-08T21:00:17.181Z,22.32
2023-04-08T21:05:18.592Z,22.33
2023-04-08T21:10:20.120Z,22.22
2023-04-08T21:15:21.527Z,22.17
2023-04-08T21:20:22.923Z,22.24
2023-04-08T21:25:26.330Z,22.31
2023-04-08T21:30:27.758Z,22.33
2023-04-08T21:35:29.217Z,22.26
2023-04-08T21:40:30.608Z,22.21
2023-04-08T21:45:32.008Z,22.22
2023-04-08T21:50:33.382Z,22.30
2023-04-08T21:55:34.785Z,22.32
2023-04-08T22:00:36.233Z,22.29
2023-04-08T22:05:37.606Z,22.21
2023-04-08T22:10:39.044Z,22.22
2023-04-08T22:15:40.610Z,22.27
2023-04-08T22:20:42.010Z,22.31
2023-04-08T22:25:43.382Z,22.26
2023-04-08T22:30:44.817Z,22.26
2023-04-08T22:35:46.236Z,22.19
2023-04-08T22:40:47.615Z,22.27
2023-04-08T22:45:49.033Z,22.33
2023-04-08T22:50:51.203Z,22.32
2023-04-08T22:55:52.595Z,22.22
2023-04-08T23:00:54.007Z,22.19
2023-04-08T23:05:55.371Z,22.25
2023-04-08T23:10:56.739Z,22.29
2023-04-08T23:15:58.704Z,22.29
2023-04-08T23:21:00.233Z,22.28
2023-04-08T23:26:01.637Z,22.23
2023-04-08T23:31:04.068Z,22.27
2023-04-08T23:36:09.033Z,22.31
2023-04-08T23:41:10.449Z,22.28
2023-04-08T23:46:11.899Z,22.26
2023-04-08T23:51:13.311Z,22.15
2023-04-08T23:56:14.707Z,22.20
